KSGH/SGH METAR and TAF weather

Enter ICAO airport designator
Station Type Date Time Source
KSGH METAR 2021/09/23 17:56 UTC NOAA

KSGH 231756Z AUTO 27021G27KT 10SM FEW042 16/08 A2992 RMK AO2 PK WND 26030/1718 SLP133 60001 T01560083 10156 20089 51003 $


Station Type Date Time Source
KSGH Decoded METAR 2021/09/23 17:56 UTC NOAA

Springfield, Springfield-Beckley Municipal Airport, OH, United States (KSGH) 39-50-25N 083-50-24W
Sep 23, 2021 - 01:56 PM EDT / 2021.09.23 1756 UTC
Wind: from the W (270 degrees) at 24 MPH (21 KT) gusting to 31 MPH (27 KT):0
Visibility: 10 mile(s):0
Sky conditions: mostly clear
Temperature: 60.1 F (15.6 C)
Dew Point: 46.9 F (8.3 C)
Relative Humidity: 61%
Pressure (altimeter): 29.92 in. Hg (1013 hPa)
Pressure tendency: 0.01 inches (0.3 hPa) higher than three hours ago
ob: KSGH 231756Z AUTO 27021G27KT 10SM FEW042 16/08 A2992 RMK AO2 PK WND 26030/1718 SLP133 60001 T01560083 10156 20089 51003
cycle: 18

Station Type Date Time Source
KSGH TAF UTC NOAA

Error!

Example: see airport list